sensor_id;sensor_type;location;lat;lon;timestamp;P1;durP1;ratioP1;P2;durP2;ratioP2
61104;SDS011;46987;32.638;-115.438;2023-07-08T00:01:24;10.85;;;4.70;;
61104;SDS011;46987;32.638;-115.438;2023-07-08T00:03:50;9.80;;;4.13;;
61104;SDS011;46987;32.638;-115.438;2023-07-08T00:06:17;6.95;;;3.90;;
61104;SDS011;46987;32.638;-115.438;2023-07-08T00:08:44;7.93;;;3.90;;
61104;SDS011;46987;32.638;-115.438;2023-07-08T00:11:11;6.32;;;3.72;;
61104;SDS011;46987;32.638;-115.438;2023-07-08T00:13:39;6.05;;;3.97;;
61104;SDS011;46987;32.638;-115.438;2023-07-08T00:16:08;5.10;;;3.60;;
61104;SDS011;46987;32.638;-115.438;2023-07-08T00:18:35;6.78;;;3.75;;
61104;SDS011;46987;32.638;-115.438;2023-07-08T00:21:04;6.60;;;3.78;;
61104;SDS011;46987;32.638;-115.438;2023-07-08T00:23:30;7.38;;;4.00;;
61104;SDS011;46987;32.638;-115.438;2023-07-08T00:26:00;6.95;;;3.90;;
61104;SDS011;46987;32.638;-115.438;2023-07-08T00:28:27;6.45;;;4.22;;
61104;SDS011;46987;32.638;-115.438;2023-07-08T00:30:56;7.18;;;4.13;;
61104;SDS011;46987;32.638;-115.438;2023-07-08T00:33:23;7.53;;;4.15;;
61104;SDS011;46987;32.638;-115.438;2023-07-08T00:35:50;7.47;;;3.88;;
61104;SDS011;46987;32.638;-115.438;2023-07-08T00:38:19;6.60;;;3.63;;
61104;SDS011;46987;32.638;-115.438;2023-07-08T00:40:50;5.63;;;3.08;;
61104;SDS011;46987;32.638;-115.438;2023-07-08T00:43:17;6.95;;;3.58;;
61104;SDS011;46987;32.638;-115.438;2023-07-08T00:45:46;6.88;;;3.78;;
61104;SDS011;46987;32.638;-115.438;2023-07-08T00:48:18;6.45;;;2.90;;
61104;SDS011;46987;32.638;-115.438;2023-07-08T00:50:46;6.85;;;2.67;;
61104;SDS011;46987;32.638;-115.438;2023-07-08T00:55:58;7.85;;;3.58;;
61104;SDS011;46987;32.638;-115.438;2023-07-08T00:58:25;6.70;;;3.10;;
61104;SDS011;46987;32.638;-115.438;2023-07-08T01:00:53;7.95;;;3.17;;
61104;SDS011;46987;32.638;-115.438;2023-07-08T01:03:22;7.35;;;3.00;;
61104;SDS011;46987;32.638;-115.438;2023-07-08T01:05:49;6.70;;;3.42;;
61104;SDS011;46987;32.638;-115.438;2023-07-08T01:08:17;6.57;;;3.50;;
61104;SDS011;46987;32.638;-115.438;2023-07-08T01:10:45;6.63;;;2.90;;
61104;SDS011;46987;32.638;-115.438;2023-07-08T01:13:12;13.32;;;3.40;;
61104;SDS011;46987;32.638;-115.438;2023-07-08T01:15:41;9.00;;;2.80;;
61104;SDS011;46987;32.638;-115.438;2023-07-08T01:18:09;9.15;;;3.25;;
61104;SDS011;46987;32.638;-115.438;2023-07-08T01:20:38;9.32;;;3.30;;
61104;SDS011;46987;32.638;-115.438;2023-07-08T01:23:07;8.15;;;3.22;;
61104;SDS011;46987;32.638;-115.438;2023-07-08T01:25:33;17.35;;;3.55;;
61104;SDS011;46987;32.638;-115.438;2023-07-08T01:28:00;8.10;;;2.72;;
61104;SDS011;46987;32.638;-115.438;2023-07-08T01:30:27;7.90;;;3.13;;
61104;SDS011;46987;32.638;-115.438;2023-07-08T01:32:55;7.03;;;3.20;;
61104;SDS011;46987;32.638;-115.438;2023-07-08T01:35:23;7.43;;;3.00;;
61104;SDS011;46987;32.638;-115.438;2023-07-08T01:37:50;9.23;;;3.05;;
61104;SDS011;46987;32.638;-115.438;2023-07-08T01:40:28;7.15;;;2.80;;
61104;SDS011;46987;32.638;-115.438;2023-07-08T01:42:55;8.43;;;3.00;;
61104;SDS011;46987;32.638;-115.438;2023-07-08T01:45:22;10.60;;;3.35;;
61104;SDS011;46987;32.638;-115.438;2023-07-08T01:47:50;7.85;;;3.20;;
61104;SDS011;46987;32.638;-115.438;2023-07-08T01:50:18;10.05;;;3.75;;
61104;SDS011;46987;32.638;-115.438;2023-07-08T01:52:45;9.70;;;4.03;;
61104;SDS011;46987;32.638;-115.438;2023-07-08T01:55:11;103.03;;;92.90;;
61104;SDS011;46987;32.638;-115.438;2023-07-08T01:57:40;12.50;;;3.83;;
61104;SDS011;46987;32.638;-115.438;2023-07-08T02:00:07;8.57;;;3.33;;
61104;SDS011;46987;32.638;-115.438;2023-07-08T02:02:39;11.45;;;3.00;;
61104;SDS011;46987;32.638;-115.438;2023-07-08T02:05:06;8.20;;;3.20;;
61104;SDS011;46987;32.638;-115.438;2023-07-08T02:07:33;18.20;;;3.63;;
61104;SDS011;46987;32.638;-115.438;2023-07-08T02:10:00;12.20;;;3.42;;
61104;SDS011;46987;32.638;-115.438;2023-07-08T02:12:26;10.35;;;3.00;;
61104;SDS011;46987;32.638;-115.438;2023-07-08T02:14:55;8.73;;;2.88;;
61104;SDS011;46987;32.638;-115.438;2023-07-08T02:17:21;8.93;;;3.20;;
61104;SDS011;46987;32.638;-115.438;2023-07-08T02:19:48;9.20;;;3.10;;
61104;SDS011;46987;32.638;-115.438;2023-07-08T02:22:16;9.52;;;3.20;;
61104;SDS011;46987;32.638;-115.438;2023-07-08T02:24:43;8.23;;;2.83;;
61104;SDS011;46987;32.638;-115.438;2023-07-08T02:27:09;10.65;;;3.28;;
61104;SDS011;46987;32.638;-115.438;2023-07-08T02:29:36;7.78;;;2.53;;
61104;SDS011;46987;32.638;-115.438;2023-07-08T02:32:06;8.20;;;2.70;;
61104;SDS011;46987;32.638;-115.438;2023-07-08T02:34:33;9.20;;;2.47;;
61104;SDS011;46987;32.638;-115.438;2023-07-08T02:37:00;10.00;;;2.55;;
61104;SDS011;46987;32.638;-115.438;2023-07-08T02:39:27;10.85;;;3.15;;
61104;SDS011;46987;32.638;-115.438;2023-07-08T02:41:55;9.68;;;3.35;;
61104;SDS011;46987;32.638;-115.438;2023-07-08T02:44:23;7.57;;;2.88;;
61104;SDS011;46987;32.638;-115.438;2023-07-08T02:46:49;11.15;;;3.20;;
61104;SDS011;46987;32.638;-115.438;2023-07-08T02:49:18;9.05;;;2.75;;
61104;SDS011;46987;32.638;-115.438;2023-07-08T02:51:45;8.80;;;2.70;;
61104;SDS011;46987;32.638;-115.438;2023-07-08T02:54:12;7.43;;;2.63;;
61104;SDS011;46987;32.638;-115.438;2023-07-08T02:56:38;11.25;;;2.38;;
61104;SDS011;46987;32.638;-115.438;2023-07-08T02:59:05;6.15;;;2.40;;
61104;SDS011;46987;32.638;-115.438;2023-07-08T03:01:32;12.32;;;3.47;;
61104;SDS011;46987;32.638;-115.438;2023-07-08T03:04:00;10.90;;;2.80;;
61104;SDS011;46987;32.638;-115.438;2023-07-08T03:06:28;8.50;;;2.83;;
61104;SDS011;46987;32.638;-115.438;2023-07-08T03:08:55;8.50;;;3.20;;
61104;SDS011;46987;32.638;-115.438;2023-07-08T03:11:21;7.07;;;2.80;;
61104;SDS011;46987;32.638;-115.438;2023-07-08T03:13:48;9.30;;;2.70;;
61104;SDS011;46987;32.638;-115.438;2023-07-08T03:16:15;10.80;;;2.75;;
61104;SDS011;46987;32.638;-115.438;2023-07-08T03:18:41;7.32;;;2.60;;
61104;SDS011;46987;32.638;-115.438;2023-07-08T03:21:17;9.77;;;2.92;;
61104;SDS011;46987;32.638;-115.438;2023-07-08T03:23:47;7.47;;;2.85;;
61104;SDS011;46987;32.638;-115.438;2023-07-08T03:26:14;15.10;;;3.15;;
61104;SDS011;46987;32.638;-115.438;2023-07-08T03:28:42;7.10;;;3.25;;
61104;SDS011;46987;32.638;-115.438;2023-07-08T03:31:11;9.70;;;3.45;;
61104;SDS011;46987;32.638;-115.438;2023-07-08T03:33:38;8.13;;;3.63;;
61104;SDS011;46987;32.638;-115.438;2023-07-08T03:36:07;10.70;;;3.60;;
61104;SDS011;46987;32.638;-115.438;2023-07-08T03:38:36;8.45;;;3.70;;
61104;SDS011;46987;32.638;-115.438;2023-07-08T03:41:06;9.10;;;3.03;;
61104;SDS011;46987;32.638;-115.438;2023-07-08T03:43:33;9.27;;;3.72;;
61104;SDS011;46987;32.638;-115.438;2023-07-08T03:45:59;8.25;;;2.85;;
61104;SDS011;46987;32.638;-115.438;2023-07-08T03:48:27;8.30;;;3.20;;
61104;SDS011;46987;32.638;-115.438;2023-07-08T03:50:54;10.90;;;3.97;;
61104;SDS011;46987;32.638;-115.438;2023-07-08T03:53:21;11.60;;;4.57;;
61104;SDS011;46987;32.638;-115.438;2023-07-08T03:55:47;11.38;;;4.57;;
61104;SDS011;46987;32.638;-115.438;2023-07-08T03:58:16;9.23;;;3.42;;
61104;SDS011;46987;32.638;-115.438;2023-07-08T04:00:43;10.30;;;5.30;;
61104;SDS011;46987;32.638;-115.438;2023-07-08T04:03:10;12.40;;;6.38;;
61104;SDS011;46987;32.638;-115.438;2023-07-08T04:05:37;11.93;;;7.07;;
61104;SDS011;46987;32.638;-115.438;2023-07-08T04:08:05;12.80;;;8.88;;
61104;SDS011;46987;32.638;-115.438;2023-07-08T04:10:31;19.95;;;9.60;;
61104;SDS011;46987;32.638;-115.438;2023-07-08T04:12:58;14.50;;;9.55;;
61104;SDS011;46987;32.638;-115.438;2023-07-08T04:15:26;14.73;;;7.95;;
61104;SDS011;46987;32.638;-115.438;2023-07-08T04:17:54;14.27;;;7.75;;
61104;SDS011;46987;32.638;-115.438;2023-07-08T04:20:22;13.25;;;7.15;;
61104;SDS011;46987;32.638;-115.438;2023-07-08T04:22:49;18.05;;;6.90;;
61104;SDS011;46987;32.638;-115.438;2023-07-08T04:25:15;13.73;;;7.70;;
61104;SDS011;46987;32.638;-115.438;2023-07-08T04:27:42;11.88;;;7.22;;
61104;SDS011;46987;32.638;-115.438;2023-07-08T04:30:09;18.67;;;7.32;;
61104;SDS011;46987;32.638;-115.438;2023-07-08T04:32:43;11.73;;;7.35;;
61104;SDS011;46987;32.638;-115.438;2023-07-08T04:35:10;13.98;;;6.53;;
61104;SDS011;46987;32.638;-115.438;2023-07-08T04:37:37;14.85;;;7.43;;
61104;SDS011;46987;32.638;-115.438;2023-07-08T04:40:04;14.80;;;7.97;;
61104;SDS011;46987;32.638;-115.438;2023-07-08T04:42:31;13.85;;;8.38;;
61104;SDS011;46987;32.638;-115.438;2023-07-08T04:44:57;13.98;;;7.95;;
61104;SDS011;46987;32.638;-115.438;2023-07-08T04:47:24;12.68;;;7.50;;
61104;SDS011;46987;32.638;-115.438;2023-07-08T04:49:57;19.25;;;8.00;;
61104;SDS011;46987;32.638;-115.438;2023-07-08T04:52:23;13.80;;;6.32;;
61104;SDS011;46987;32.638;-115.438;2023-07-08T04:54:50;11.80;;;7.25;;
61104;SDS011;46987;32.638;-115.438;2023-07-08T04:57:16;15.07;;;6.88;;
61104;SDS011;46987;32.638;-115.438;2023-07-08T04:59:43;14.25;;;6.53;;
61104;SDS011;46987;32.638;-115.438;2023-07-08T05:02:10;15.70;;;6.25;;
61104;SDS011;46987;32.638;-115.438;2023-07-08T05:04:37;9.93;;;5.10;;
61104;SDS011;46987;32.638;-115.438;2023-07-08T05:07:05;9.40;;;3.88;;
61104;SDS011;46987;32.638;-115.438;2023-07-08T05:09:32;13.18;;;4.32;;
61104;SDS011;46987;32.638;-115.438;2023-07-08T05:11:58;10.45;;;3.85;;
61104;SDS011;46987;32.638;-115.438;2023-07-08T05:14:25;10.00;;;4.18;;
61104;SDS011;46987;32.638;-115.438;2023-07-08T05:16:51;9.27;;;3.53;;
61104;SDS011;46987;32.638;-115.438;2023-07-08T05:19:18;6.97;;;3.38;;
61104;SDS011;46987;32.638;-115.438;2023-07-08T05:21:48;6.38;;;3.25;;
61104;SDS011;46987;32.638;-115.438;2023-07-08T05:24:16;9.55;;;3.40;;
61104;SDS011;46987;32.638;-115.438;2023-07-08T05:26:43;12.57;;;3.60;;
61104;SDS011;46987;32.638;-115.438;2023-07-08T05:29:09;7.85;;;3.38;;
61104;SDS011;46987;32.638;-115.438;2023-07-08T05:31:36;14.30;;;3.78;;
61104;SDS011;46987;32.638;-115.438;2023-07-08T05:34:03;7.35;;;2.90;;
61104;SDS011;46987;32.638;-115.438;2023-07-08T05:36:29;8.68;;;3.60;;
61104;SDS011;46987;32.638;-115.438;2023-07-08T05:38:56;9.05;;;3.63;;
61104;SDS011;46987;32.638;-115.438;2023-07-08T05:41:25;5.68;;;3.20;;
61104;SDS011;46987;32.638;-115.438;2023-07-08T05:43:51;13.23;;;3.03;;
61104;SDS011;46987;32.638;-115.438;2023-07-08T05:46:18;6.90;;;2.80;;
61104;SDS011;46987;32.638;-115.438;2023-07-08T05:48:45;11.15;;;2.90;;
61104;SDS011;46987;32.638;-115.438;2023-07-08T05:51:11;7.40;;;2.30;;
61104;SDS011;46987;32.638;-115.438;2023-07-08T05:53:38;12.20;;;3.35;;
61104;SDS011;46987;32.638;-115.438;2023-07-08T05:56:05;7.88;;;2.90;;
61104;SDS011;46987;32.638;-115.438;2023-07-08T05:58:33;6.32;;;2.60;;
61104;SDS011;46987;32.638;-115.438;2023-07-08T06:01:00;5.70;;;2.30;;
61104;SDS011;46987;32.638;-115.438;2023-07-08T06:03:27;9.05;;;2.65;;
61104;SDS011;46987;32.638;-115.438;2023-07-08T06:05:53;10.93;;;2.70;;
61104;SDS011;46987;32.638;-115.438;2023-07-08T06:08:20;6.00;;;2.45;;
61104;SDS011;46987;32.638;-115.438;2023-07-08T06:10:46;13.38;;;3.22;;
61104;SDS011;46987;32.638;-115.438;2023-07-08T06:13:13;7.65;;;2.38;;
61104;SDS011;46987;32.638;-115.438;2023-07-08T06:15:42;12.15;;;2.63;;
61104;SDS011;46987;32.638;-115.438;2023-07-08T06:18:09;7.82;;;2.10;;
61104;SDS011;46987;32.638;-115.438;2023-07-08T06:20:35;9.27;;;2.65;;
61104;SDS011;46987;32.638;-115.438;2023-07-08T06:23:02;10.73;;;2.10;;
61104;SDS011;46987;32.638;-115.438;2023-07-08T06:25:29;5.53;;;2.10;;
61104;SDS011;46987;32.638;-115.438;2023-07-08T06:27:56;6.50;;;2.28;;
61104;SDS011;46987;32.638;-115.438;2023-07-08T06:30:22;9.40;;;2.47;;
61104;SDS011;46987;32.638;-115.438;2023-07-08T06:32:51;7.82;;;2.17;;
61104;SDS011;46987;32.638;-115.438;2023-07-08T06:35:18;7.45;;;2.28;;
61104;SDS011;46987;32.638;-115.438;2023-07-08T06:37:44;9.68;;;2.55;;
61104;SDS011;46987;32.638;-115.438;2023-07-08T06:40:11;9.48;;;2.75;;
61104;SDS011;46987;32.638;-115.438;2023-07-08T06:42:38;9.05;;;2.38;;
61104;SDS011;46987;32.638;-115.438;2023-07-08T06:45:28;9.57;;;3.63;;
61104;SDS011;46987;32.638;-115.438;2023-07-08T06:47:56;11.27;;;3.20;;
61104;SDS011;46987;32.638;-115.438;2023-07-08T06:50:23;7.90;;;2.70;;
61104;SDS011;46987;32.638;-115.438;2023-07-08T06:52:50;11.90;;;2.47;;
61104;SDS011;46987;32.638;-115.438;2023-07-08T06:55:16;9.98;;;2.63;;
61104;SDS011;46987;32.638;-115.438;2023-07-08T06:57:43;4.68;;;1.90;;
61104;SDS011;46987;32.638;-115.438;2023-07-08T07:00:10;4.72;;;2.00;;
61104;SDS011;46987;32.638;-115.438;2023-07-08T07:02:38;5.43;;;2.10;;
61104;SDS011;46987;32.638;-115.438;2023-07-08T07:05:06;5.53;;;2.38;;
61104;SDS011;46987;32.638;-115.438;2023-07-08T07:07:33;6.03;;;2.22;;
61104;SDS011;46987;32.638;-115.438;2023-07-08T07:10:00;8.18;;;2.33;;
61104;SDS011;46987;32.638;-115.438;2023-07-08T07:12:27;5.65;;;2.08;;
61104;SDS011;46987;32.638;-115.438;2023-07-08T07:14:53;6.78;;;2.08;;
61104;SDS011;46987;32.638;-115.438;2023-07-08T07:17:20;8.73;;;2.72;;
61104;SDS011;46987;32.638;-115.438;2023-07-08T07:19:47;6.90;;;2.58;;
61104;SDS011;46987;32.638;-115.438;2023-07-08T07:22:16;9.68;;;2.95;;
61104;SDS011;46987;32.638;-115.438;2023-07-08T07:24:42;7.85;;;2.88;;
61104;SDS011;46987;32.638;-115.438;2023-07-08T07:27:09;5.15;;;2.22;;
61104;SDS011;46987;32.638;-115.438;2023-07-08T07:29:40;7.25;;;2.80;;
61104;SDS011;46987;32.638;-115.438;2023-07-08T07:32:08;8.70;;;2.77;;
61104;SDS011;46987;32.638;-115.438;2023-07-08T07:34:34;8.30;;;2.58;;
61104;SDS011;46987;32.638;-115.438;2023-07-08T07:37:01;8.18;;;2.50;;
61104;SDS011;46987;32.638;-115.438;2023-07-08T07:39:30;6.88;;;2.33;;
61104;SDS011;46987;32.638;-115.438;2023-07-08T07:41:57;8.48;;;2.67;;
61104;SDS011;46987;32.638;-115.438;2023-07-08T07:44:23;7.32;;;2.70;;
61104;SDS011;46987;32.638;-115.438;2023-07-08T07:46:52;7.60;;;2.63;;
61104;SDS011;46987;32.638;-115.438;2023-07-08T07:49:19;7.82;;;2.47;;
61104;SDS011;46987;32.638;-115.438;2023-07-08T07:51:46;7.82;;;2.50;;
61104;SDS011;46987;32.638;-115.438;2023-07-08T07:54:13;7.70;;;2.38;;
61104;SDS011;46987;32.638;-115.438;2023-07-08T07:56:42;6.35;;;2.60;;
61104;SDS011;46987;32.638;-115.438;2023-07-08T07:59:09;10.38;;;2.10;;
61104;SDS011;46987;32.638;-115.438;2023-07-08T08:01:36;10.18;;;2.75;;
61104;SDS011;46987;32.638;-115.438;2023-07-08T08:04:03;9.35;;;2.72;;
61104;SDS011;46987;32.638;-115.438;2023-07-08T08:06:29;9.77;;;3.42;;
61104;SDS011;46987;32.638;-115.438;2023-07-08T08:08:56;13.02;;;4.35;;
61104;SDS011;46987;32.638;-115.438;2023-07-08T08:11:24;15.13;;;3.83;;
61104;SDS011;46987;32.638;-115.438;2023-07-08T08:13:53;9.77;;;3.58;;
61104;SDS011;46987;32.638;-115.438;2023-07-08T08:16:20;12.48;;;3.55;;
61104;SDS011;46987;32.638;-115.438;2023-07-08T08:18:46;10.40;;;2.92;;
61104;SDS011;46987;32.638;-115.438;2023-07-08T08:21:13;7.72;;;2.75;;
61104;SDS011;46987;32.638;-115.438;2023-07-08T08:23:39;9.05;;;2.95;;
61104;SDS011;46987;32.638;-115.438;2023-07-08T08:26:06;8.65;;;3.22;;
61104;SDS011;46987;32.638;-115.438;2023-07-08T08:28:33;7.28;;;2.50;;
61104;SDS011;46987;32.638;-115.438;2023-07-08T08:31:02;8.13;;;2.55;;
61104;SDS011;46987;32.638;-115.438;2023-07-08T08:33:28;8.77;;;2.88;;
61104;SDS011;46987;32.638;-115.438;2023-07-08T08:35:55;7.30;;;2.30;;
61104;SDS011;46987;32.638;-115.438;2023-07-08T08:38:21;7.90;;;2.47;;
61104;SDS011;46987;32.638;-115.438;2023-07-08T08:40:48;8.98;;;2.83;;
61104;SDS011;46987;32.638;-115.438;2023-07-08T08:43:16;7.47;;;2.38;;
61104;SDS011;46987;32.638;-115.438;2023-07-08T08:45:56;6.65;;;2.53;;
61104;SDS011;46987;32.638;-115.438;2023-07-08T08:48:27;6.05;;;2.38;;
61104;SDS011;46987;32.638;-115.438;2023-07-08T08:50:56;6.88;;;2.90;;
61104;SDS011;46987;32.638;-115.438;2023-07-08T08:53:26;8.48;;;2.90;;
61104;SDS011;46987;32.638;-115.438;2023-07-08T08:55:54;5.55;;;2.53;;
61104;SDS011;46987;32.638;-115.438;2023-07-08T08:58:31;5.55;;;2.65;;
61104;SDS011;46987;32.638;-115.438;2023-07-08T09:00:59;6.28;;;2.83;;
61104;SDS011;46987;32.638;-115.438;2023-07-08T09:03:32;6.70;;;2.88;;
61104;SDS011;46987;32.638;-115.438;2023-07-08T09:06:00;6.90;;;2.78;;
61104;SDS011;46987;32.638;-115.438;2023-07-08T09:08:30;6.30;;;2.88;;
61104;SDS011;46987;32.638;-115.438;2023-07-08T09:10:58;7.68;;;2.85;;
61104;SDS011;46987;32.638;-115.438;2023-07-08T09:13:27;8.90;;;3.10;;
61104;SDS011;46987;32.638;-115.438;2023-07-08T09:15:58;6.28;;;3.00;;
61104;SDS011;46987;32.638;-115.438;2023-07-08T09:18:33;7.20;;;2.80;;
61104;SDS011;46987;32.638;-115.438;2023-07-08T09:21:06;6.88;;;2.92;;
61104;SDS011;46987;32.638;-115.438;2023-07-08T09:23:39;9.25;;;3.42;;
61104;SDS011;46987;32.638;-115.438;2023-07-08T09:26:09;7.68;;;3.00;;
61104;SDS011;46987;32.638;-115.438;2023-07-08T09:28:40;9.52;;;3.40;;
61104;SDS011;46987;32.638;-115.438;2023-07-08T09:31:07;7.13;;;2.92;;
61104;SDS011;46987;32.638;-115.438;2023-07-08T09:33:37;8.88;;;3.00;;
61104;SDS011;46987;32.638;-115.438;2023-07-08T09:36:06;8.02;;;3.17;;
61104;SDS011;46987;32.638;-115.438;2023-07-08T09:38:41;7.78;;;3.10;;
61104;SDS011;46987;32.638;-115.438;2023-07-08T09:41:08;8.77;;;2.70;;
61104;SDS011;46987;32.638;-115.438;2023-07-08T09:43:35;6.32;;;2.88;;
61104;SDS011;46987;32.638;-115.438;2023-07-08T09:46:03;6.07;;;2.83;;
61104;SDS011;46987;32.638;-115.438;2023-07-08T09:48:33;7.95;;;2.88;;
61104;SDS011;46987;32.638;-115.438;2023-07-08T09:51:00;6.82;;;3.17;;
61104;SDS011;46987;32.638;-115.438;2023-07-08T09:53:28;10.18;;;3.38;;
61104;SDS011;46987;32.638;-115.438;2023-07-08T09:55:56;9.38;;;3.50;;
61104;SDS011;46987;32.638;-115.438;2023-07-08T09:58:25;9.45;;;3.42;;
61104;SDS011;46987;32.638;-115.438;2023-07-08T10:00:54;9.60;;;3.20;;
61104;SDS011;46987;32.638;-115.438;2023-07-08T10:03:22;5.70;;;2.53;;
61104;SDS011;46987;32.638;-115.438;2023-07-08T10:05:49;8.25;;;2.70;;
61104;SDS011;46987;32.638;-115.438;2023-07-08T10:08:17;7.90;;;2.80;;
61104;SDS011;46987;32.638;-115.438;2023-07-08T10:10:46;11.57;;;3.30;;
61104;SDS011;46987;32.638;-115.438;2023-07-08T10:13:15;7.93;;;2.90;;
61104;SDS011;46987;32.638;-115.438;2023-07-08T10:15:44;6.82;;;2.90;;
61104;SDS011;46987;32.638;-115.438;2023-07-08T10:18:13;6.60;;;2.63;;
61104;SDS011;46987;32.638;-115.438;2023-07-08T10:20:44;7.00;;;2.78;;
61104;SDS011;46987;32.638;-115.438;2023-07-08T10:23:15;7.35;;;3.15;;
61104;SDS011;46987;32.638;-115.438;2023-07-08T10:25:49;7.93;;;2.90;;
61104;SDS011;46987;32.638;-115.438;2023-07-08T10:28:27;9.43;;;2.95;;
61104;SDS011;46987;32.638;-115.438;2023-07-08T10:30:58;7.70;;;2.38;;
61104;SDS011;46987;32.638;-115.438;2023-07-08T10:36:18;6.13;;;2.85;;
61104;SDS011;46987;32.638;-115.438;2023-07-08T10:38:49;9.70;;;2.70;;
61104;SDS011;46987;32.638;-115.438;2023-07-08T10:41:25;7.25;;;2.60;;
61104;SDS011;46987;32.638;-115.438;2023-07-08T10:43:59;5.90;;;2.75;;
61104;SDS011;46987;32.638;-115.438;2023-07-08T10:46:32;6.20;;;2.70;;
61104;SDS011;46987;32.638;-115.438;2023-07-08T10:49:08;7.35;;;3.63;;
61104;SDS011;46987;32.638;-115.438;2023-07-08T10:54:32;8.45;;;4.00;;
61104;SDS011;46987;32.638;-115.438;2023-07-08T10:57:07;7.20;;;3.58;;
61104;SDS011;46987;32.638;-115.438;2023-07-08T10:59:38;6.35;;;3.10;;
61104;SDS011;46987;32.638;-115.438;2023-07-08T11:04:55;7.50;;;2.67;;
61104;SDS011;46987;32.638;-115.438;2023-07-08T11:07:28;7.88;;;2.95;;
61104;SDS011;46987;32.638;-115.438;2023-07-08T11:09:58;12.38;;;4.20;;
61104;SDS011;46987;32.638;-115.438;2023-07-08T11:12:29;6.07;;;3.08;;
61104;SDS011;46987;32.638;-115.438;2023-07-08T11:14:59;6.37;;;3.00;;
61104;SDS011;46987;32.638;-115.438;2023-07-08T11:17:30;7.50;;;3.30;;
61104;SDS011;46987;32.638;-115.438;2023-07-08T11:20:01;8.77;;;3.03;;
61104;SDS011;46987;32.638;-115.438;2023-07-08T11:22:29;8.63;;;3.33;;
61104;SDS011;46987;32.638;-115.438;2023-07-08T11:24:56;9.23;;;3.05;;
61104;SDS011;46987;32.638;-115.438;2023-07-08T11:27:25;8.20;;;2.92;;
61104;SDS011;46987;32.638;-115.438;2023-07-08T11:29:56;9.40;;;3.20;;
61104;SDS011;46987;32.638;-115.438;2023-07-08T11:32:25;11.43;;;3.53;;
61104;SDS011;46987;32.638;-115.438;2023-07-08T11:34:53;9.80;;;3.08;;
61104;SDS011;46987;32.638;-115.438;2023-07-08T11:37:20;9.43;;;3.40;;
61104;SDS011;46987;32.638;-115.438;2023-07-08T11:39:53;15.80;;;4.57;;
61104;SDS011;46987;32.638;-115.438;2023-07-08T11:42:21;15.57;;;5.07;;
61104;SDS011;46987;32.638;-115.438;2023-07-08T11:44:49;13.07;;;6.00;;
61104;SDS011;46987;32.638;-115.438;2023-07-08T11:47:22;18.05;;;7.07;;
61104;SDS011;46987;32.638;-115.438;2023-07-08T11:49:50;18.25;;;7.70;;
61104;SDS011;46987;32.638;-115.438;2023-07-08T11:52:19;22.80;;;7.07;;
61104;SDS011;46987;32.638;-115.438;2023-07-08T11:54:47;24.70;;;9.25;;
61104;SDS011;46987;32.638;-115.438;2023-07-08T11:57:17;15.20;;;8.45;;
61104;SDS011;46987;32.638;-115.438;2023-07-08T11:59:44;24.15;;;9.05;;
61104;SDS011;46987;32.638;-115.438;2023-07-08T12:02:12;25.67;;;9.75;;
61104;SDS011;46987;32.638;-115.438;2023-07-08T12:04:55;25.58;;;9.07;;
61104;SDS011;46987;32.638;-115.438;2023-07-08T12:07:29;26.02;;;9.70;;
61104;SDS011;46987;32.638;-115.438;2023-07-08T12:09:57;24.15;;;9.40;;
61104;SDS011;46987;32.638;-115.438;2023-07-08T12:12:27;33.35;;;10.50;;
61104;SDS011;46987;32.638;-115.438;2023-07-08T12:14:58;34.00;;;10.68;;
61104;SDS011;46987;32.638;-115.438;2023-07-08T12:17:26;26.23;;;9.70;;
61104;SDS011;46987;32.638;-115.438;2023-07-08T12:20:04;25.33;;;10.23;;
61104;SDS011;46987;32.638;-115.438;2023-07-08T12:22:34;26.98;;;10.63;;
61104;SDS011;46987;32.638;-115.438;2023-07-08T12:25:00;28.48;;;10.40;;
61104;SDS011;46987;32.638;-115.438;2023-07-08T12:27:31;33.15;;;12.52;;
61104;SDS011;46987;32.638;-115.438;2023-07-08T12:29:58;35.28;;;13.73;;
61104;SDS011;46987;32.638;-115.438;2023-07-08T12:32:24;37.70;;;14.40;;
61104;SDS011;46987;32.638;-115.438;2023-07-08T12:34:55;33.90;;;15.40;;
61104;SDS011;46987;32.638;-115.438;2023-07-08T12:37:21;34.90;;;16.70;;
61104;SDS011;46987;32.638;-115.438;2023-07-08T12:39:53;35.45;;;18.00;;
61104;SDS011;46987;32.638;-115.438;2023-07-08T12:42:21;32.90;;;18.45;;
61104;SDS011;46987;32.638;-115.438;2023-07-08T12:44:47;38.65;;;17.77;;
61104;SDS011;46987;32.638;-115.438;2023-07-08T12:47:14;34.40;;;16.98;;
61104;SDS011;46987;32.638;-115.438;2023-07-08T12:49:41;26.38;;;14.50;;
61104;SDS011;46987;32.638;-115.438;2023-07-08T12:52:19;32.53;;;15.60;;
61104;SDS011;46987;32.638;-115.438;2023-07-08T12:54:46;41.75;;;15.00;;
61104;SDS011;46987;32.638;-115.438;2023-07-08T12:57:13;34.47;;;16.52;;
61104;SDS011;46987;32.638;-115.438;2023-07-08T12:59:40;48.35;;;17.92;;
61104;SDS011;46987;32.638;-115.438;2023-07-08T13:02:09;52.28;;;17.02;;
61104;SDS011;46987;32.638;-115.438;2023-07-08T13:04:40;42.35;;;16.83;;
61104;SDS011;46987;32.638;-115.438;2023-07-08T13:07:07;33.47;;;13.40;;
61104;SDS011;46987;32.638;-115.438;2023-07-08T13:09:40;29.80;;;13.18;;
61104;SDS011;46987;32.638;-115.438;2023-07-08T13:12:12;37.55;;;12.95;;
61104;SDS011;46987;32.638;-115.438;2023-07-08T13:14:39;27.70;;;11.88;;
61104;SDS011;46987;32.638;-115.438;2023-07-08T13:17:10;33.15;;;11.90;;
61104;SDS011;46987;32.638;-115.438;2023-07-08T13:19:38;29.55;;;12.52;;
61104;SDS011;46987;32.638;-115.438;2023-07-08T13:22:08;28.45;;;10.57;;
61104;SDS011;46987;32.638;-115.438;2023-07-08T13:24:37;32.35;;;11.38;;
61104;SDS011;46987;32.638;-115.438;2023-07-08T13:27:12;37.03;;;12.20;;
61104;SDS011;46987;32.638;-115.438;2023-07-08T13:29:39;24.73;;;9.32;;
61104;SDS011;46987;32.638;-115.438;2023-07-08T13:32:09;25.52;;;10.43;;
61104;SDS011;46987;32.638;-115.438;2023-07-08T13:34:36;25.27;;;10.18;;
61104;SDS011;46987;32.638;-115.438;2023-07-08T13:37:03;30.48;;;11.43;;
61104;SDS011;46987;32.638;-115.438;2023-07-08T13:39:31;36.53;;;11.80;;
61104;SDS011;46987;32.638;-115.438;2023-07-08T13:42:00;33.97;;;12.43;;
61104;SDS011;46987;32.638;-115.438;2023-07-08T13:44:28;25.63;;;11.73;;
61104;SDS011;46987;32.638;-115.438;2023-07-08T13:46:56;23.33;;;11.25;;
61104;SDS011;46987;32.638;-115.438;2023-07-08T13:49:24;29.05;;;11.15;;
61104;SDS011;46987;32.638;-115.438;2023-07-08T13:52:04;28.15;;;10.52;;
61104;SDS011;46987;32.638;-115.438;2023-07-08T13:54:33;28.98;;;10.80;;
61104;SDS011;46987;32.638;-115.438;2023-07-08T13:57:01;27.08;;;9.57;;
61104;SDS011;46987;32.638;-115.438;2023-07-08T13:59:28;29.88;;;9.55;;
61104;SDS011;46987;32.638;-115.438;2023-07-08T14:01:55;21.27;;;8.20;;
61104;SDS011;46987;32.638;-115.438;2023-07-08T14:04:24;18.60;;;7.20;;
61104;SDS011;46987;32.638;-115.438;2023-07-08T14:06:53;22.77;;;7.63;;
61104;SDS011;46987;32.638;-115.438;2023-07-08T14:09:20;23.95;;;7.28;;
61104;SDS011;46987;32.638;-115.438;2023-07-08T14:11:48;23.92;;;6.53;;
61104;SDS011;46987;32.638;-115.438;2023-07-08T14:14:17;25.85;;;7.55;;
61104;SDS011;46987;32.638;-115.438;2023-07-08T14:16:44;19.17;;;6.05;;
61104;SDS011;46987;32.638;-115.438;2023-07-08T14:19:12;21.02;;;6.20;;